Time;durP1;ratioP1;P1;durP2;ratioP2;P2;SDS_P1;SDS_P2;PMS_P1;PMS_P2;Temp;Humidity;BMP_temperature;BMP_pressure;BME280_temperature;BME280_humidity;BME280_pressure;Samples;Min_cycle;Max_cycle;Signal;HPM_P1;HPM_P2
2022/08/01 00:01:49;;;;;;;10.25;8.05;;;18.20;99.90;;;;;;4845713;29;20470;-67
2022/08/01 00:04:14;;;;;;;11.23;7.82;;;18.20;99.90;;;;;;4862426;29;20139;-67
2022/08/01 00:06:40;;;;;;;12.23;8.50;;;18.20;99.90;;;;;;4861575;29;20508;-67
2022/08/01 00:09:06;;;;;;;13.05;8.70;;;18.20;99.90;;;;;;4861384;29;20141;-67
2022/08/01 00:11:31;;;;;;;14.13;8.40;;;18.20;99.90;;;;;;4844445;29;20053;-67
2022/08/01 00:13:57;;;;;;;13.55;8.55;;;18.20;99.90;;;;;;4861711;29;20061;-67
2022/08/01 00:16:22;;;;;;;10.70;8.73;;;18.20;99.90;;;;;;4860455;29;20459;-66
2022/08/01 00:18:49;;;;;;;12.25;8.57;;;18.20;99.90;;;;;;4861890;29;20049;-66
2022/08/01 00:21:15;;;;;;;13.05;9.80;;;18.20;99.90;;;;;;4861434;29;20373;-66
2022/08/01 00:23:41;;;;;;;11.32;8.75;;;18.20;99.90;;;;;;4861403;29;20198;-67
2022/08/01 00:26:07;;;;;;;12.38;10.13;;;18.20;99.90;;;;;;4858283;29;20070;-67
2022/08/01 00:28:33;;;;;;;11.75;9.55;;;18.20;99.90;;;;;;4843412;29;20090;-67
2022/08/01 00:30:59;;;;;;;11.60;9.60;;;18.20;99.90;;;;;;4841748;29;20457;-67
2022/08/01 00:33:24;;;;;;;13.10;9.77;;;18.30;99.90;;;;;;4835129;29;20100;-66
2022/08/01 00:35:50;;;;;;;12.52;10.07;;;18.20;99.90;;;;;;4861170;29;20503;-67
2022/08/01 00:38:15;;;;;;;12.25;9.23;;;18.30;99.90;;;;;;4845425;29;20081;-67
2022/08/01 00:40:41;;;;;;;11.80;8.70;;;18.30;99.90;;;;;;4845191;29;20152;-68
2022/08/01 00:43:07;;;;;;;11.45;9.55;;;18.30;99.90;;;;;;4843577;29;20140;-67
2022/08/01 00:45:32;;;;;;;10.45;8.35;;;18.30;99.90;;;;;;4860526;29;20061;-67
2022/08/01 00:47:58;;;;;;;10.13;7.95;;;18.20;99.90;;;;;;4844268;29;20061;-67
2022/08/01 00:50:24;;;;;;;9.95;7.45;;;18.20;99.90;;;;;;4861154;29;20050;-66
2022/08/01 00:52:50;;;;;;;11.68;7.40;;;18.20;99.90;;;;;;4829514;29;20483;-66
2022/08/01 00:55:18;;;;;;;11.15;8.43;;;18.10;99.90;;;;;;4843910;29;20500;-66
2022/08/01 00:57:43;;;;;;;9.30;7.00;;;18.10;99.90;;;;;;4859098;29;20463;-66
2022/08/01 01:00:10;;;;;;;7.03;6.22;;;18.10;99.90;;;;;;4861288;29;20053;-66
2022/08/01 01:02:36;;;;;;;8.80;6.60;;;18.10;99.90;;;;;;4860893;29;20093;-67
2022/08/01 01:05:02;;;;;;;9.55;6.88;;;18.10;99.90;;;;;;4845396;29;20551;-67
2022/08/01 01:07:51;;;;;;;8.48;6.30;;;18.10;99.90;;;;;;4843202;29;20519;-67
2022/08/01 01:10:40;;;;;;;9.32;6.20;;;18.10;99.90;;;;;;4861173;29;20061;-66
2022/08/01 01:13:12;;;;;;;7.63;5.93;;;18.10;99.90;;;;;;4826387;29;20089;-66
2022/08/01 01:15:47;;;;;;;8.52;6.05;;;18.20;99.90;;;;;;4842521;29;20113;-66
2022/08/01 01:18:44;;;;;;;7.13;6.18;;;18.00;99.90;;;;;;4842439;29;20132;-66
2022/08/01 01:21:16;;;;;;;7.07;5.90;;;17.90;99.90;;;;;;4822822;29;20058;-66
2022/08/01 01:24:17;;;;;;;6.55;5.80;;;17.90;99.90;;;;;;4854811;29;20061;-67
2022/08/01 01:27:10;;;;;;;7.68;6.32;;;17.90;99.90;;;;;;4847396;29;20093;-66
2022/08/01 01:29:45;;;;;;;8.45;6.18;;;17.90;99.90;;;;;;4861185;29;20110;-67
2022/08/01 01:32:25;;;;;;;6.90;6.05;;;17.90;99.90;;;;;;4843804;29;20544;-66
2022/08/01 01:34:54;;;;;;;8.60;5.85;;;17.90;99.90;;;;;;4844248;29;20057;-66
2022/08/01 01:37:22;;;;;;;7.93;5.90;;;17.90;99.90;;;;;;4859353;29;20498;-65
2022/08/01 01:39:50;;;;;;;8.35;6.35;;;18.00;99.90;;;;;;4844092;29;20046;-66
2022/08/01 01:42:17;;;;;;;7.78;5.57;;;17.90;99.90;;;;;;4859393;29;20059;-67
2022/08/01 01:44:45;;;;;;;6.93;5.50;;;17.90;99.90;;;;;;4860535;29;20053;-66
2022/08/01 01:47:13;;;;;;;7.20;5.30;;;17.90;99.90;;;;;;4842969;29;20192;-66
2022/08/01 01:49:41;;;;;;;5.68;4.68;;;17.90;99.90;;;;;;4843980;29;20180;-66
2022/08/01 01:52:08;;;;;;;6.05;5.10;;;17.90;99.90;;;;;;4842197;29;20505;-67
2022/08/01 01:54:37;;;;;;;6.15;4.25;;;17.90;99.90;;;;;;4843226;29;20145;-68
2022/08/01 01:57:06;;;;;;;5.55;4.20;;;17.90;99.90;;;;;;4860379;29;20136;-67
2022/08/01 01:59:34;;;;;;;5.40;4.05;;;17.80;99.90;;;;;;4859330;29;20530;-69
2022/08/01 02:02:04;;;;;;;3.60;3.30;;;17.90;99.90;;;;;;4860046;29;20050;-68
2022/08/01 02:04:30;;;;;;;4.18;3.55;;;17.80;99.90;;;;;;4859210;29;20061;-67
2022/08/01 02:06:57;;;;;;;3.00;2.65;;;17.80;99.90;;;;;;4858996;29;20077;-67
2022/08/01 02:09:24;;;;;;;2.90;2.63;;;17.70;99.90;;;;;;4860308;29;20049;-67
2022/08/01 02:11:51;;;;;;;4.07;2.60;;;17.80;99.90;;;;;;4853005;29;20061;-66
2022/08/01 02:14:19;;;;;;;5.20;2.67;;;17.80;99.90;;;;;;4844039;29;20504;-67
2022/08/01 02:16:48;;;;;;;3.15;2.75;;;17.80;99.90;;;;;;4843217;29;20133;-67
2022/08/01 02:19:16;;;;;;;3.15;2.78;;;17.80;99.90;;;;;;4858781;29;20491;-66
2022/08/01 02:21:51;;;;;;;4.18;2.83;;;17.80;99.90;;;;;;4858532;29;20514;-68
2022/08/01 02:24:25;;;;;;;3.75;2.97;;;17.80;99.90;;;;;;4860049;29;20069;-67
2022/08/01 02:26:54;;;;;;;3.47;3.17;;;17.80;99.90;;;;;;4859373;29;20061;-67
2022/08/01 02:29:37;;;;;;;4.72;3.38;;;17.80;99.90;;;;;;4860173;29;20057;-67
2022/08/01 02:32:06;;;;;;;3.80;3.40;;;17.80;99.90;;;;;;4841689;29;20058;-67
2022/08/01 02:34:35;;;;;;;3.75;3.15;;;17.80;99.90;;;;;;4832854;29;20057;-68
2022/08/01 02:37:02;;;;;;;5.35;3.00;;;17.70;99.90;;;;;;4843173;29;20060;-67
2022/08/01 02:39:31;;;;;;;4.35;3.20;;;17.80;99.90;;;;;;4846715;29;20054;-68
2022/08/01 02:42:03;;;;;;;3.53;3.00;;;17.80;99.90;;;;;;4845851;29;20128;-67
2022/08/01 02:44:32;;;;;;;5.47;4.10;;;17.80;99.90;;;;;;4863131;29;20061;-67
2022/08/01 02:47:02;;;;;;;6.50;3.55;;;17.80;99.90;;;;;;4846189;29;20567;-67
2022/08/01 02:49:32;;;;;;;4.03;3.63;;;17.80;99.90;;;;;;4862390;29;20053;-66
2022/08/01 02:52:01;;;;;;;5.15;3.58;;;17.70;99.90;;;;;;4862560;29;20483;-68
2022/08/01 02:54:29;;;;;;;4.50;3.60;;;17.80;99.90;;;;;;4862838;29;20050;-67
2022/08/01 02:56:56;;;;;;;5.22;3.90;;;17.70;99.90;;;;;;4863168;29;20054;-67
2022/08/01 02:59:25;;;;;;;5.38;3.50;;;17.70;99.90;;;;;;4861939;29;20061;-66
2022/08/01 03:01:57;;;;;;;3.35;3.05;;;17.70;99.90;;;;;;4872893;29;20461;-67
2022/08/01 03:04:24;;;;;;;8.43;3.30;;;17.70;99.90;;;;;;4881502;29;20403;-67
2022/08/01 03:06:54;;;;;;;4.70;3.00;;;17.70;99.90;;;;;;4864537;29;20189;-67
2022/08/01 03:09:22;;;;;;;4.43;2.40;;;17.70;99.90;;;;;;4873640;29;20057;-67
2022/08/01 03:11:49;;;;;;;4.43;2.53;;;17.70;99.90;;;;;;4862551;29;20466;-66
2022/08/01 03:14:17;;;;;;;4.35;2.10;;;17.70;99.90;;;;;;4860991;29;20049;-67
2022/08/01 03:16:45;;;;;;;8.30;2.53;;;17.60;99.90;;;;;;4846488;29;20507;-67
2022/08/01 03:19:13;;;;;;;4.38;2.08;;;17.60;99.90;;;;;;4861471;29;20068;-66
2022/08/01 03:21:40;;;;;;;3.13;1.80;;;17.60;99.90;;;;;;4845871;29;20049;-67
2022/08/01 03:24:07;;;;;;;3.13;1.70;;;17.60;99.90;;;;;;4862769;29;20053;-66
2022/08/01 03:26:36;;;;;;;3.50;2.00;;;17.60;99.90;;;;;;4827253;29;20484;-66
2022/08/01 03:29:06;;;;;;;3.92;1.88;;;17.60;99.90;;;;;;4824717;29;20062;-67
2022/08/01 03:31:34;;;;;;;5.50;1.90;;;17.60;99.90;;;;;;4824691;29;20066;-67
2022/08/01 03:34:00;;;;;;;3.53;2.15;;;17.60;99.90;;;;;;4824206;29;20121;-66
2022/08/01 03:36:28;;;;;;;3.45;1.90;;;17.60;99.90;;;;;;4823843;29;20268;-67
2022/08/01 03:38:57;;;;;;;2.35;1.92;;;17.50;99.90;;;;;;4826081;29;20070;-66
2022/08/01 03:41:26;;;;;;;3.00;1.80;;;17.50;99.90;;;;;;4824520;29;20069;-67
2022/08/01 03:44:07;;;;;;;2.50;1.65;;;17.50;99.90;;;;;;4825549;29;20407;-67
2022/08/01 03:46:46;;;;;;;3.13;1.77;;;17.50;99.90;;;;;;4825396;29;20069;-67
2022/08/01 03:49:17;;;;;;;3.78;1.85;;;17.50;99.90;;;;;;4822706;29;20062;-67
2022/08/01 03:51:45;;;;;;;3.45;1.77;;;17.50;99.90;;;;;;4823538;29;20058;-66
2022/08/01 03:54:12;;;;;;;6.82;2.05;;;17.50;99.90;;;;;;4825547;29;20137;-67
2022/08/01 03:56:40;;;;;;;3.38;1.95;;;17.50;99.90;;;;;;4842477;29;20058;-66
2022/08/01 03:59:06;;;;;;;3.72;1.70;;;17.50;99.90;;;;;;4843387;29;20521;-67
2022/08/01 04:01:33;;;;;;;3.47;1.77;;;17.50;99.90;;;;;;4842691;29;20046;-66
2022/08/01 04:04:00;;;;;;;5.18;2.08;;;17.50;99.90;;;;;;4843446;29;20061;-67
2022/08/01 04:06:25;;;;;;;3.35;1.90;;;17.40;99.90;;;;;;4826518;29;20061;-66
2022/08/01 04:09:21;;;;;;;4.03;1.85;;;17.40;99.90;;;;;;4843094;29;20058;-67
2022/08/01 04:12:16;;;;;;;3.60;1.88;;;17.40;99.90;;;;;;4825138;29;20137;-65
2022/08/01 04:15:32;;;;;;;4.05;2.42;;;17.40;99.90;;;;;;4826570;29;20070;-67
2022/08/01 04:18:24;;;;;;;4.88;2.33;;;17.40;99.90;;;;;;4821458;29;20058;-66
2022/08/01 04:21:35;;;;;;;7.05;2.35;;;17.40;99.90;;;;;;4823961;29;20054;-67
2022/08/01 04:24:10;;;;;;;4.93;2.63;;;17.40;99.90;;;;;;4812819;29;20062;-66
2022/08/01 04:30:28;;;;;;;4.43;2.22;;;17.40;99.90;;;;;;4841360;29;20053;-66
2022/08/01 04:33:20;;;;;;;9.38;2.30;;;17.40;99.90;;;;;;4824611;29;20088;-67
2022/08/01 04:35:58;;;;;;;4.78;2.42;;;17.20;99.90;;;;;;4840084;29;20114;-67
2022/08/01 04:38:37;;;;;;;8.05;2.58;;;17.40;99.90;;;;;;4810243;29;20084;-67
2022/08/01 04:41:06;;;;;;;9.57;2.85;;;17.30;99.90;;;;;;4841230;29;20042;-67
2022/08/01 04:43:37;;;;;;;7.05;2.63;;;17.30;99.90;;;;;;4841216;29;20050;-67
2022/08/01 04:46:29;;;;;;;9.93;2.75;;;17.40;99.90;;;;;;4837252;29;20045;-67
2022/08/01 04:49:38;;;;;;;6.40;2.65;;;17.40;99.90;;;;;;4840822;29;20054;-67
2022/08/01 04:52:05;;;;;;;7.15;2.60;;;17.40;99.90;;;;;;4836472;29;20518;-66
2022/08/01 04:54:55;;;;;;;4.90;2.20;;;17.40;99.90;;;;;;4835354;29;20057;-67
2022/08/01 04:57:21;;;;;;;6.63;2.72;;;17.40;99.90;;;;;;4837536;29;20492;-67
2022/08/01 04:59:49;;;;;;;5.25;2.25;;;17.40;99.90;;;;;;4838216;29;20057;-67
2022/08/01 05:02:18;;;;;;;4.80;2.45;;;17.40;99.90;;;;;;4837469;29;20098;-67
2022/08/01 05:04:45;;;;;;;7.93;2.28;;;17.40;99.90;;;;;;4824486;29;20058;-67
2022/08/01 05:07:12;;;;;;;4.97;2.30;;;17.40;99.90;;;;;;4837910;29;20046;-67
2022/08/01 05:09:45;;;;;;;7.25;2.33;;;17.40;99.90;;;;;;4841572;29;20054;-67
2022/08/01 05:12:11;;;;;;;6.72;2.75;;;17.40;99.90;;;;;;4834089;29;20408;-68
2022/08/01 05:14:37;;;;;;;4.53;2.40;;;17.40;99.90;;;;;;4841301;29;20073;-66
2022/08/01 05:17:04;;;;;;;6.65;2.08;;;17.40;99.90;;;;;;4840862;29;20049;-68
2022/08/01 05:19:31;;;;;;;7.93;2.50;;;17.40;99.90;;;;;;4841240;29;20070;-66
2022/08/01 05:21:58;;;;;;;6.60;2.45;;;17.40;99.90;;;;;;4840584;29;20069;-67
2022/08/01 05:24:24;;;;;;;5.20;2.25;;;17.30;99.90;;;;;;4841029;29;20109;-67
2022/08/01 05:26:50;;;;;;;6.38;2.67;;;17.40;99.90;;;;;;4839978;29;20733;-67
2022/08/01 05:29:16;;;;;;;6.00;2.53;;;17.30;99.90;;;;;;4851476;29;20058;-67
2022/08/01 05:31:41;;;;;;;6.80;2.33;;;17.30;99.90;;;;;;4853217;29;20058;-68
2022/08/01 05:34:07;;;;;;;7.60;2.90;;;17.40;99.90;;;;;;4851241;29;20101;-68
2022/08/01 05:36:37;;;;;;;8.18;2.50;;;17.40;99.90;;;;;;4860940;29;20049;-67
2022/08/01 05:39:04;;;;;;;7.25;2.50;;;17.40;99.90;;;;;;4842114;29;20057;-67
2022/08/01 05:41:30;;;;;;;11.40;2.65;;;17.40;99.90;;;;;;4825954;29;20503;-67
2022/08/01 05:43:55;;;;;;;8.85;2.90;;;17.40;99.90;;;;;;4855712;29;20050;-67
2022/08/01 05:46:21;;;;;;;7.30;2.35;;;17.50;99.90;;;;;;4859032;29;20517;-67
2022/08/01 05:48:47;;;;;;;7.97;3.10;;;17.50;99.90;;;;;;4857108;29;20053;-67
2022/08/01 05:51:12;;;;;;;7.20;3.55;;;17.50;99.90;;;;;;4826615;29;20061;-68
2022/08/01 05:53:38;;;;;;;9.35;2.85;;;17.60;99.90;;;;;;4857425;29;20068;-67
2022/08/01 05:56:04;;;;;;;10.40;3.40;;;17.60;99.90;;;;;;4857643;29;20069;-68
2022/08/01 05:58:31;;;;;;;7.03;2.45;;;17.60;99.90;;;;;;4827999;29;20411;-66
2022/08/01 06:00:57;;;;;;;7.50;2.88;;;17.60;99.90;;;;;;4828581;29;20545;-67
2022/08/01 06:03:23;;;;;;;5.97;2.83;;;17.70;99.90;;;;;;4842798;29;20050;-66
2022/08/01 06:05:48;;;;;;;7.78;2.90;;;17.70;99.90;;;;;;4858280;29;20069;-67
2022/08/01 06:08:14;;;;;;;8.52;2.80;;;17.80;99.90;;;;;;4859574;29;20106;-67
2022/08/01 06:10:39;;;;;;;7.93;2.70;;;17.80;99.90;;;;;;4858128;29;20057;-65
2022/08/01 06:13:05;;;;;;;8.52;2.95;;;17.80;99.90;;;;;;4842182;29;20144;-67
2022/08/01 06:15:32;;;;;;;12.20;3.17;;;17.90;99.90;;;;;;4847356;29;20086;-67
2022/08/01 06:17:58;;;;;;;8.15;2.72;;;17.90;99.90;;;;;;4861868;29;20148;-67
2022/08/01 06:20:23;;;;;;;6.95;2.85;;;18.10;99.90;;;;;;4852414;29;20129;-67
2022/08/01 06:22:51;;;;;;;9.48;2.80;;;18.20;99.90;;;;;;4848163;29;20061;-66
2022/08/01 06:25:17;;;;;;;11.77;3.33;;;18.20;99.90;;;;;;4863022;29;20057;-67
2022/08/01 06:27:43;;;;;;;7.53;2.70;;;18.40;99.90;;;;;;4864030;29;20068;-68
2022/08/01 06:30:10;;;;;;;7.65;2.80;;;18.50;99.90;;;;;;4847074;29;20049;-67
2022/08/01 06:32:35;;;;;;;10.98;2.63;;;18.60;99.90;;;;;;4847033;29;20117;-66
2022/08/01 06:35:01;;;;;;;6.10;2.30;;;18.80;99.90;;;;;;4843031;29;20409;-67
2022/08/01 06:37:32;;;;;;;9.00;2.25;;;18.70;99.90;;;;;;4844181;29;20078;-68
2022/08/01 06:40:06;;;;;;;14.43;2.80;;;18.60;99.90;;;;;;4853550;29;20061;-66
2022/08/01 06:42:35;;;;;;;14.50;3.10;;;18.60;99.90;;;;;;4859931;29;20057;-67
2022/08/01 06:45:09;;;;;;;8.90;2.67;;;18.60;99.90;;;;;;4861215;29;20101;-66
2022/08/01 06:47:36;;;;;;;9.00;2.85;;;18.60;99.90;;;;;;4861903;29;20061;-67
2022/08/01 06:50:03;;;;;;;6.85;2.58;;;18.60;99.90;;;;;;4846315;29;20093;-68
2022/08/01 06:52:28;;;;;;;7.90;2.55;;;18.60;99.90;;;;;;4845147;29;20057;-67
2022/08/01 06:54:54;;;;;;;7.47;2.35;;;18.60;99.90;;;;;;4861738;29;20384;-66
2022/08/01 06:57:19;;;;;;;9.73;2.42;;;18.60;99.90;;;;;;4845529;29;20049;-67
2022/08/01 06:59:45;;;;;;;7.57;2.03;;;18.50;99.90;;;;;;4847269;29;20049;-66
2022/08/01 07:02:11;;;;;;;11.43;2.83;;;18.50;99.90;;;;;;4846149;29;20073;-67
2022/08/01 07:04:36;;;;;;;9.10;2.70;;;18.50;99.90;;;;;;4846554;29;20061;-67
2022/08/01 07:07:02;;;;;;;6.90;2.40;;;18.40;99.90;;;;;;4846053;29;20125;-67
2022/08/01 07:09:28;;;;;;;7.65;2.35;;;18.50;99.90;;;;;;4846521;29;20049;-68
2022/08/01 07:11:55;;;;;;;7.88;2.65;;;18.50;99.90;;;;;;4846601;29;20447;-66
2022/08/01 07:14:21;;;;;;;8.40;2.72;;;18.40;99.90;;;;;;4862496;29;20057;-66
2022/08/01 07:16:47;;;;;;;11.73;2.90;;;18.40;99.90;;;;;;4845962;29;20050;-67
2022/08/01 07:19:12;;;;;;;11.55;3.03;;;18.40;99.90;;;;;;4862642;29;20053;-66
2022/08/01 07:21:38;;;;;;;10.55;2.75;;;18.40;99.90;;;;;;4862539;29;20097;-68
2022/08/01 07:24:05;;;;;;;11.68;2.65;;;18.30;99.90;;;;;;4862394;29;20049;-68
2022/08/01 07:26:31;;;;;;;10.52;2.63;;;18.30;99.90;;;;;;4862259;29;20451;-67
2022/08/01 07:28:56;;;;;;;11.57;2.80;;;18.20;99.90;;;;;;4845335;29;20133;-68
2022/08/01 07:31:22;;;;;;;9.32;2.70;;;18.10;99.90;;;;;;4862818;29;20403;-67
2022/08/01 07:33:49;;;;;;;10.65;2.75;;;18.00;99.90;;;;;;4862019;29;20088;-66
2022/08/01 07:36:15;;;;;;;12.57;3.05;;;;;;;;;;4845650;29;20088;-67
2022/08/01 07:38:40;;;;;;;12.27;2.97;;;18.40;99.90;;;;;;4862606;29;20106;-68
2022/08/01 07:41:06;;;;;;;12.63;3.17;;;18.10;99.90;;;;;;4845642;29;20053;-67
2022/08/01 07:43:31;;;;;;;9.77;2.85;;;17.60;99.90;;;;;;4862304;29;20168;-67
2022/08/01 07:45:57;;;;;;;11.00;3.22;;;18.40;99.90;;;;;;4845884;29;20065;-66
2022/08/01 07:48:23;;;;;;;17.77;3.28;;;18.10;99.90;;;;;;4862488;29;20049;-66
2022/08/01 07:50:50;;;;;;;9.50;2.78;;;18.50;99.90;;;;;;4844671;29;20045;-66
2022/08/01 07:53:16;;;;;;;13.15;3.00;;;18.30;99.90;;;;;;4862401;29;20201;-67
2022/08/01 07:55:42;;;;;;;13.35;2.88;;;18.50;99.90;;;;;;4845399;29;20058;-68
2022/08/01 07:58:08;;;;;;;5.85;2.28;;;18.40;99.90;;;;;;4844622;29;20053;-66
2022/08/01 08:00:34;;;;;;;10.18;2.75;;;18.60;99.90;;;;;;4860798;29;20049;-66
2022/08/01 08:02:59;;;;;;;11.55;2.83;;;18.80;99.90;;;;;;4861784;29;20054;-68
2022/08/01 08:05:28;;;;;;;9.95;2.67;;;19.10;99.90;;;;;;4843984;29;20056;-66
2022/08/01 08:07:53;;;;;;;7.10;2.95;;;18.80;99.90;;;;;;4861479;29;20085;-66
2022/08/01 08:10:19;;;;;;;8.05;2.53;;;18.90;99.90;;;;;;4861284;29;20104;-68
2022/08/01 08:12:46;;;;;;;11.63;2.70;;;18.90;99.90;;;;;;4825524;29;20054;-67
2022/08/01 08:15:12;;;;;;;8.43;2.85;;;19.30;99.90;;;;;;4859891;29;20059;-66
2022/08/01 08:17:38;;;;;;;6.50;2.75;;;19.20;99.90;;;;;;4843847;29;20053;-67
2022/08/01 08:20:08;;;;;;;9.65;2.80;;;19.30;99.90;;;;;;4861007;29;20109;-66
2022/08/01 08:22:34;;;;;;;7.85;2.70;;;19.50;99.90;;;;;;4843275;29;20483;-66
2022/08/01 08:25:00;;;;;;;9.95;2.78;;;19.90;99.90;;;;;;4860717;29;20096;-66
2022/08/01 08:27:26;;;;;;;8.40;2.42;;;19.80;99.90;;;;;;4844870;29;20053;-67
2022/08/01 08:29:52;;;;;;;12.52;2.72;;;19.90;99.90;;;;;;4861677;29;20049;-67
2022/08/01 08:32:17;;;;;;;9.38;2.70;;;20.10;99.90;;;;;;4861482;29;20109;-66
2022/08/01 08:34:43;;;;;;;10.68;2.53;;;20.40;99.90;;;;;;4843921;29;20351;-66
2022/08/01 08:37:09;;;;;;;7.72;2.28;;;20.30;99.90;;;;;;4860208;29;20088;-66
2022/08/01 08:39:34;;;;;;;11.15;3.28;;;20.50;99.90;;;;;;4860604;29;20046;-67
2022/08/01 08:42:01;;;;;;;9.18;2.42;;;20.60;99.90;;;;;;4861318;29;20041;-66
2022/08/01 08:44:27;;;;;;;8.50;2.15;;;21.00;99.90;;;;;;4845182;29;20428;-65
2022/08/01 08:46:55;;;;;;;8.68;2.47;;;20.80;99.90;;;;;;4828515;29;20053;-66
2022/08/01 08:49:26;;;;;;;8.25;2.50;;;20.80;99.90;;;;;;4858695;29;20041;-66
2022/08/01 08:51:53;;;;;;;7.30;2.20;;;20.90;99.90;;;;;;4840316;29;20103;-66
2022/08/01 08:54:22;;;;;;;9.70;2.53;;;20.70;99.90;;;;;;4858215;29;20052;-66
2022/08/01 08:56:48;;;;;;;8.40;2.28;;;20.90;99.90;;;;;;4860826;29;20534;-66
2022/08/01 08:59:14;;;;;;;5.57;2.03;;;20.90;99.90;;;;;;4844222;29;20095;-68
2022/08/01 09:01:41;;;;;;;8.27;2.15;;;20.90;99.90;;;;;;4844459;29;20085;-68
2022/08/01 09:04:07;;;;;;;9.27;2.40;;;21.00;99.90;;;;;;4861032;29;20049;-68
2022/08/01 09:06:33;;;;;;;7.30;2.35;;;21.40;99.90;;;;;;4860556;29;20072;-66
2022/08/01 09:08:59;;;;;;;8.25;2.33;;;21.70;99.90;;;;;;4857794;29;20406;-68
2022/08/01 09:11:25;;;;;;;7.22;2.10;;;21.50;99.90;;;;;;4842063;29;20053;-65
2022/08/01 09:14:10;;;;;;;5.97;2.05;;;21.10;99.90;;;;;;4860732;29;20051;-67
2022/08/01 09:16:37;;;;;;;7.18;1.88;;;21.00;99.90;;;;;;4843944;29;20407;-66
2022/08/01 09:19:19;;;;;;;7.45;2.05;;;20.90;99.90;;;;;;4859972;29;20069;-64
2022/08/01 09:22:00;;;;;;;8.73;1.90;;;21.10;99.90;;;;;;4859177;29;20037;-67
2022/08/01 09:24:30;;;;;;;7.28;1.65;;;21.10;99.90;;;;;;4842449;29;20041;-66
2022/08/01 09:26:57;;;;;;;6.35;2.08;;;21.20;99.90;;;;;;4859437;29;20061;-65
2022/08/01 09:29:28;;;;;;;10.27;2.75;;;21.30;99.90;;;;;;4859509;29;20058;-66
2022/08/01 09:31:56;;;;;;;8.20;2.08;;;21.60;99.90;;;;;;4860761;29;20053;-67
2022/08/01 09:34:30;;;;;;;6.05;1.80;;;21.40;99.90;;;;;;4844174;29;20345;-66
2022/08/01 09:37:01;;;;;;;6.35;1.92;;;21.40;99.90;;;;;;4858758;29;20045;-64
2022/08/01 09:39:32;;;;;;;6.38;1.80;;;21.40;99.90;;;;;;4855913;29;20471;-65
2022/08/01 09:41:59;;;;;;;8.73;2.33;;;21.20;99.90;;;;;;4844909;29;20089;-65
2022/08/01 09:44:43;;;;;;;8.93;1.77;;;21.40;99.90;;;;;;4841930;29;20500;-67
2022/08/01 09:47:09;;;;;;;6.22;1.58;;;21.50;99.90;;;;;;4857555;29;20091;-67
2022/08/01 09:49:37;;;;;;;7.30;2.20;;;21.60;99.90;;;;;;4859578;29;20124;-65
2022/08/01 09:52:13;;;;;;;6.20;1.98;;;21.50;99.90;;;;;;4863866;29;20065;-66
2022/08/01 09:54:40;;;;;;;5.32;1.70;;;21.60;99.90;;;;;;4864140;29;20100;-66
2022/08/01 09:57:17;;;;;;;5.70;1.70;;;21.50;99.90;;;;;;4863883;29;20508;-66
2022/08/01 09:59:48;;;;;;;6.03;1.70;;;21.90;99.90;;;;;;4863260;29;20065;-65
2022/08/01 10:02:30;;;;;;;3.23;1.60;;;21.80;99.90;;;;;;4864193;29;20049;-67
2022/08/01 10:04:55;;;;;;;4.70;2.03;;;21.80;99.90;;;;;;4846089;29;20388;-65
2022/08/01 10:07:22;;;;;;;4.78;1.58;;;21.60;99.90;;;;;;4845329;29;20049;-66
2022/08/01 10:09:48;;;;;;;6.70;1.98;;;21.80;99.90;;;;;;4845623;29;20058;-65
2022/08/01 10:12:18;;;;;;;7.63;1.83;;;21.80;99.90;;;;;;4845345;29;20076;-66
2022/08/01 10:14:45;;;;;;;4.38;1.88;;;21.80;99.90;;;;;;4862251;29;20057;-65
2022/08/01 10:17:16;;;;;;;6.55;1.77;;;21.80;99.90;;;;;;4851332;29;20057;-65
2022/08/01 10:19:43;;;;;;;5.47;1.50;;;22.00;99.90;;;;;;4862867;29;20089;-66
2022/08/01 10:22:10;;;;;;;5.20;1.40;;;22.00;99.90;;;;;;4849888;29;20041;-66
2022/08/01 10:24:39;;;;;;;3.78;1.40;;;21.70;99.90;;;;;;4847547;29;20062;-66
2022/08/01 10:27:07;;;;;;;3.22;1.35;;;22.00;99.90;;;;;;4830378;29;20104;-65
2022/08/01 10:29:56;;;;;;;2.97;1.20;;;21.90;99.90;;;;;;4844043;29;20106;-65
2022/08/01 10:32:23;;;;;;;4.10;1.50;;;22.00;99.90;;;;;;4827878;29;20057;-65
2022/08/01 10:34:54;;;;;;;3.80;1.52;;;21.80;99.90;;;;;;4843538;29;20397;-66
2022/08/01 10:37:20;;;;;;;2.72;1.33;;;21.70;99.90;;;;;;4844046;29;20063;-66
2022/08/01 10:39:46;;;;;;;6.85;1.77;;;21.80;99.90;;;;;;4828841;29;20500;-65
2022/08/01 10:42:12;;;;;;;5.60;1.70;;;21.60;99.90;;;;;;4845030;29;20092;-65
2022/08/01 10:44:38;;;;;;;1.85;1.13;;;21.70;99.90;;;;;;4828797;29;20487;-66
2022/08/01 10:47:11;;;;;;;3.00;1.17;;;21.70;99.90;;;;;;4844825;29;20207;-66
2022/08/01 10:49:47;;;;;;;2.33;1.00;;;21.80;99.90;;;;;;4828366;29;20054;-66
2022/08/01 10:52:16;;;;;;;7.05;1.27;;;21.90;99.90;;;;;;4842113;29;20050;-66
2022/08/01 10:54:42;;;;;;;3.03;1.20;;;22.10;99.90;;;;;;4844904;29;20082;-66
2022/08/01 10:57:08;;;;;;;4.10;1.20;;;21.90;99.90;;;;;;4828014;29;20202;-66
2022/08/01 10:59:39;;;;;;;3.67;1.10;;;22.00;99.90;;;;;;4828411;29;20081;-65
2022/08/01 11:02:05;;;;;;;5.43;1.50;;;22.10;99.90;;;;;;4844636;29;20058;-65
2022/08/01 11:04:40;;;;;;;3.88;1.40;;;22.10;99.90;;;;;;4826382;29;20053;-66
2022/08/01 11:07:11;;;;;;;3.83;1.00;;;22.10;99.90;;;;;;4843601;29;20058;-65
2022/08/01 11:09:45;;;;;;;3.55;1.40;;;22.20;99.90;;;;;;4843542;29;20065;-65
2022/08/01 11:12:18;;;;;;;3.42;1.17;;;22.30;99.90;;;;;;4844732;29;20415;-66
2022/08/01 11:14:59;;;;;;;3.58;1.33;;;22.10;99.90;;;;;;4844331;29;20106;-65
2022/08/01 11:17:47;;;;;;;6.30;1.88;;;22.40;99.90;;;;;;4813110;29;20064;-66
2022/08/01 11:20:18;;;;;;;3.42;1.23;;;22.40;96.20;;;;;;4828110;29;20062;-66
2022/08/01 11:23:00;;;;;;;3.88;1.20;;;22.30;99.90;;;;;;4826107;29;20058;-66
2022/08/01 11:25:49;;;;;;;4.03;1.33;;;22.30;99.90;;;;;;4850017;29;20423;-66
2022/08/01 11:28:17;;;;;;;4.60;1.10;;;22.40;99.90;;;;;;4857366;29;20145;-66
2022/08/01 11:30:44;;;;;;;3.25;1.20;;;22.90;99.90;;;;;;4862569;29;20128;-66
2022/08/01 11:33:10;;;;;;;5.93;1.42;;;22.30;99.90;;;;;;4861571;29;20061;-66
2022/08/01 11:35:37;;;;;;;4.63;1.33;;;22.30;99.90;;;;;;4858116;29;20399;-66
2022/08/01 11:38:24;;;;;;;4.65;1.23;;;22.20;99.90;;;;;;4847175;29;20054;-66
2022/08/01 11:41:09;;;;;;;4.45;1.08;;;22.40;99.90;;;;;;4843880;29;20129;-66
2022/08/01 11:43:35;;;;;;;4.78;1.20;;;22.40;97.00;;;;;;4844671;29;20089;-66
2022/08/01 11:46:01;;;;;;;3.70;1.25;;;22.40;99.90;;;;;;4842361;29;20467;-66
2022/08/01 11:48:28;;;;;;;4.13;1.23;;;22.40;99.10;;;;;;4843269;29;20419;-66
2022/08/01 11:50:57;;;;;;;5.35;1.73;;;22.20;98.50;;;;;;4826318;29;20125;-66
2022/08/01 11:53:23;;;;;;;2.60;1.08;;;22.30;99.90;;;;;;4841952;29;20068;-66
2022/08/01 11:55:52;;;;;;;5.07;1.38;;;22.40;99.80;;;;;;4843796;29;20054;-66
2022/08/01 11:58:27;;;;;;;2.05;0.90;;;22.50;98.50;;;;;;4843479;29;20496;-66
2022/08/01 12:00:55;;;;;;;3.13;1.13;;;22.60;98.50;;;;;;4843096;29;20124;-66
2022/08/01 12:03:29;;;;;;;4.50;1.63;;;22.70;98.60;;;;;;4842946;29;20058;-66
2022/08/01 12:05:57;;;;;;;5.95;1.30;;;22.80;95.80;;;;;;4843541;29;20065;-66
2022/08/01 12:08:26;;;;;;;12.32;2.67;;;22.60;96.50;;;;;;4843363;29;20096;-66
2022/08/01 12:10:53;;;;;;;4.85;1.30;;;22.40;96.50;;;;;;4842734;29;20093;-66
2022/08/01 12:13:19;;;;;;;5.57;1.60;;;22.20;98.80;;;;;;4843108;29;20094;-66
2022/08/01 12:15:46;;;;;;;4.68;1.35;;;22.30;99.90;;;;;;4842372;29;20363;-66
2022/08/01 12:18:12;;;;;;;4.25;1.50;;;22.30;99.70;;;;;;4841960;29;20440;-66
2022/08/01 12:20:40;;;;;;;5.32;1.20;;;22.30;99.90;;;;;;4842569;29;20186;-66
2022/08/01 12:23:08;;;;;;;3.65;1.13;;;22.30;99.90;;;;;;4834089;29;20054;-66
2022/08/01 12:25:35;;;;;;;3.70;1.42;;;22.40;99.90;;;;;;4861388;29;20093;-66
2022/08/01 12:28:03;;;;;;;5.38;1.40;;;22.50;99.90;;;;;;4858715;29;20049;-66
2022/08/01 12:30:30;;;;;;;5.78;1.23;;;22.60;99.40;;;;;;4851600;29;20194;-66
2022/08/01 12:32:57;;;;;;;4.57;1.65;;;22.70;98.60;;;;;;4861470;29;20113;-66
2022/08/01 12:35:28;;;;;;;5.95;1.30;;;22.70;97.90;;;;;;4861235;29;20388;-66
2022/08/01 12:37:59;;;;;;;5.18;1.38;;;23.30;97.40;;;;;;4860813;29;20490;-66
2022/08/01 12:40:25;;;;;;;4.38;1.33;;;22.70;97.00;;;;;;4861436;29;20129;-66
2022/08/01 12:43:05;;;;;;;6.10;1.40;;;22.70;97.00;;;;;;4849719;29;20492;-65
2022/08/01 12:45:36;;;;;;;8.88;1.45;;;22.60;95.50;;;;;;4844360;29;20049;-66
2022/08/01 12:48:07;;;;;;;5.95;1.50;;;22.70;96.80;;;;;;4842286;29;20050;-65
2022/08/01 12:50:33;;;;;;;4.60;1.30;;;22.70;95.50;;;;;;4842916;29;20053;-66
2022/08/01 12:52:58;;;;;;;3.20;1.20;;;22.90;95.30;;;;;;4842492;29;20102;-66
2022/08/01 12:55:26;;;;;;;4.95;1.30;;;23.00;94.20;;;;;;4842668;29;20058;-65
2022/08/01 12:58:12;;;;;;;7.55;1.38;;;23.00;93.20;;;;;;4842663;29;20054;-66
2022/08/01 13:00:39;;;;;;;4.68;1.40;;;23.10;93.70;;;;;;4842506;29;20064;-66
2022/08/01 13:03:12;;;;;;;2.75;1.02;;;23.10;94.70;;;;;;4849065;29;20416;-66